createdAt,value
2018-05-31T00:00:58.579Z,1015.46
2018-05-31T00:02:07.744Z,1015.45
2018-05-31T00:03:17.409Z,1015.45
2018-05-31T00:04:26.622Z,1015.42
2018-05-31T00:05:35.485Z,1015.4
2018-05-31T00:06:44.652Z,1015.4
2018-05-31T00:07:53.517Z,1015.37
2018-05-31T00:09:02.386Z,1015.41
2018-05-31T00:10:11.299Z,1015.38
2018-05-31T00:11:20.164Z,1015.36
2018-05-31T00:12:29.033Z,1015.38
2018-05-31T00:13:37.888Z,1015.38
2018-05-31T00:14:46.752Z,1015.38
2018-05-31T00:15:55.769Z,1015.33
2018-05-31T00:17:04.634Z,1015.36
2018-05-31T00:18:13.501Z,1015.39
2018-05-31T00:19:22.660Z,1015.3
2018-05-31T00:20:31.522Z,1015.35
2018-05-31T00:21:40.637Z,1015.35
2018-05-31T00:22:49.498Z,1015.31
2018-05-31T00:23:58.360Z,1015.29
2018-05-31T00:25:07.270Z,1015.3
2018-05-31T00:26:16.744Z,1015.29
2018-05-31T00:27:26.038Z,1015.35
2018-05-31T00:28:34.902Z,1015.37
2018-05-31T00:29:44.061Z,1015.39
2018-05-31T00:30:52.925Z,1015.36
2018-05-31T00:32:01.790Z,1015.38
2018-05-31T00:33:10.705Z,1015.33
2018-05-31T00:34:19.863Z,1015.35
2018-05-31T00:35:28.728Z,1015.31
2018-05-31T00:36:37.593Z,1015.38
2018-05-31T00:37:46.455Z,1015.3
2018-05-31T00:38:55.733Z,1015.31
2018-05-31T00:40:04.597Z,1015.28
2018-05-31T00:41:13.462Z,1015.23
2018-05-31T00:42:22.324Z,1015.21
2018-05-31T00:43:31.190Z,1015.23
2018-05-31T00:44:40.056Z,1015.22
2018-05-31T00:45:48.920Z,1015.25
2018-05-31T00:46:57.785Z,1015.24
2018-05-31T00:48:06.662Z,1015.27
2018-05-31T00:49:16.770Z,1015.26
2018-05-31T00:50:25.738Z,1015.25
2018-05-31T00:51:34.885Z,1015.27
2018-05-31T00:52:44.032Z,1015.25
2018-05-31T00:53:53.192Z,1015.25
2018-05-31T00:55:02.353Z,1015.24
2018-05-31T00:56:11.268Z,1015.23
2018-05-31T00:57:20.413Z,1015.24
2018-05-31T00:58:29.277Z,1015.19
2018-05-31T00:59:38.141Z,1015.21
2018-05-31T01:00:47.001Z,1015.21
2018-05-31T01:01:55.968Z,1015.23
2018-05-31T01:03:05.113Z,1015.24
2018-05-31T01:04:13.976Z,1015.25
2018-05-31T01:05:22.839Z,1015.27
2018-05-31T01:06:31.705Z,1015.3
2018-05-31T01:07:40.917Z,1015.24
2018-05-31T01:08:49.781Z,1015.24
2018-05-31T01:09:58.644Z,1015.26
2018-05-31T01:11:07.509Z,1015.23
2018-05-31T01:12:16.372Z,1015.22
2018-05-31T01:13:25.236Z,1015.22
2018-05-31T01:14:34.424Z,1015.2
2018-05-31T01:15:43.581Z,1015.2
2018-05-31T01:16:52.444Z,1015.26
2018-05-31T01:18:01.357Z,1015.28
2018-05-31T01:19:10.276Z,1015.28
2018-05-31T01:20:19.137Z,1015.26
2018-05-31T01:21:28.000Z,1015.26
2018-05-31T01:22:36.863Z,1015.29
2018-05-31T01:23:46.030Z,1015.31
2018-05-31T01:24:55.221Z,1015.27
2018-05-31T01:26:04.086Z,1015.29
2018-05-31T01:27:12.955Z,1015.28
2018-05-31T01:28:21.814Z,1015.28
2018-05-31T01:29:30.673Z,1015.3
2018-05-31T01:30:39.835Z,1015.26
2018-05-31T01:31:48.997Z,1015.27
2018-05-31T01:32:58.687Z,1015.28
2018-05-31T01:34:07.550Z,1015.29
2018-05-31T01:35:16.712Z,1015.3
2018-05-31T01:36:25.578Z,1015.28
2018-05-31T01:37:34.444Z,1015.26
2018-05-31T01:38:43.307Z,1015.29
2018-05-31T01:39:52.170Z,1015.26
2018-05-31T01:41:01.355Z,1015.28
2018-05-31T01:42:10.317Z,1015.31
2018-05-31T01:43:19.181Z,1015.24
2018-05-31T01:44:28.046Z,1015.24
2018-05-31T01:45:37.187Z,1015.25
2018-05-31T01:46:46.348Z,1015.28
2018-05-31T01:47:55.858Z,1015.28
2018-05-31T01:49:04.719Z,1015.26
2018-05-31T01:50:13.868Z,1015.24
2018-05-31T01:51:22.730Z,1015.23
2018-05-31T01:52:31.885Z,1015.26
2018-05-31T01:53:41.192Z,1015.26
2018-05-31T01:54:50.635Z,1015.23
2018-05-31T01:55:59.780Z,1015.23
2018-05-31T01:57:08.645Z,1015.21
2018-05-31T01:58:17.510Z,1015.25
2018-05-31T01:59:26.374Z,1015.26
2018-05-31T02:00:35.236Z,1015.23
2018-05-31T02:01:44.099Z,1015.27
2018-05-31T02:02:52.962Z,1015.25
2018-05-31T02:04:01.832Z,1015.24
2018-05-31T02:05:10.743Z,1015.27
2018-05-31T02:06:19.606Z,1015.26
2018-05-31T02:07:28.468Z,1015.26
2018-05-31T02:08:37.332Z,1015.26
2018-05-31T02:09:46.482Z,1015.28
2018-05-31T02:10:55.397Z,1015.29
2018-05-31T02:12:04.259Z,1015.28
2018-05-31T02:13:13.123Z,1015.31
2018-05-31T02:14:22.274Z,1015.3
2018-05-31T02:15:31.138Z,1015.29
2018-05-31T02:16:40.149Z,1015.3
2018-05-31T02:17:49.087Z,1015.29
2018-05-31T02:18:57.930Z,1015.29
2018-05-31T02:20:06.794Z,1015.3
2018-05-31T02:21:15.657Z,1015.27
2018-05-31T02:22:24.873Z,1015.24
2018-05-31T02:23:34.505Z,1015.28
2018-05-31T02:24:43.367Z,1015.24
2018-05-31T02:25:52.229Z,1015.25
2018-05-31T02:27:01.090Z,1015.22
2018-05-31T02:28:09.955Z,1015.19
2018-05-31T02:29:18.816Z,1015.23
2018-05-31T02:30:27.680Z,1015.21
2018-05-31T02:31:36.839Z,1015.25
2018-05-31T02:32:45.707Z,1015.23
2018-05-31T02:33:54.929Z,1015.26
2018-05-31T02:35:03.794Z,1015.24
2018-05-31T02:36:12.938Z,1015.24
2018-05-31T02:37:22.086Z,1015.26
2018-05-31T02:38:30.946Z,1015.22
2018-05-31T02:39:39.911Z,1015.21
2018-05-31T02:40:48.773Z,1015.21
2018-05-31T02:41:57.636Z,1015.19
2018-05-31T02:43:06.500Z,1015.19
2018-05-31T02:44:15.365Z,1015.24
2018-05-31T02:45:24.280Z,1015.23
2018-05-31T02:46:33.141Z,1015.21
2018-05-31T02:47:42.300Z,1015.24
2018-05-31T02:48:51.165Z,1015.23
2018-05-31T02:50:00.028Z,1015.25
2018-05-31T02:51:09.524Z,1015.17
2018-05-31T02:52:18.390Z,1015.18
2018-05-31T02:53:27.251Z,1015.2
2018-05-31T02:54:36.113Z,1015.14
2018-05-31T02:55:44.979Z,1015.16
2018-05-31T02:56:53.841Z,1015.16
2018-05-31T02:58:03.006Z,1015.09
2018-05-31T02:59:11.869Z,1015.08
2018-05-31T03:00:20.733Z,1015.05
2018-05-31T03:01:29.594Z,1015.08
2018-05-31T03:02:38.558Z,1015.04
2018-05-31T03:03:47.421Z,1015.03
2018-05-31T03:04:56.583Z,1015.07
2018-05-31T03:06:05.446Z,1015.1
2018-05-31T03:07:14.608Z,1015.13
2018-05-31T03:08:23.470Z,1015.12
2018-05-31T03:09:32.346Z,1015.07
2018-05-31T03:10:41.206Z,1015.05
2018-05-31T03:11:50.071Z,1015.03
2018-05-31T03:12:58.934Z,1015.05
2018-05-31T03:14:07.946Z,1015.03
2018-05-31T03:15:16.810Z,1015.04
2018-05-31T03:16:25.675Z,1015.08
2018-05-31T03:17:34.543Z,1015.08
2018-05-31T03:18:43.405Z,1015.11
2018-05-31T03:19:52.418Z,1015.11
2018-05-31T03:21:01.572Z,1015.14
2018-05-31T03:22:10.442Z,1015.13
2018-05-31T03:23:19.589Z,1015.13
2018-05-31T03:24:29.039Z,1015.14
2018-05-31T03:25:37.951Z,1015.13
2018-05-31T03:26:46.816Z,1015.12
2018-05-31T03:27:55.679Z,1015.13
2018-05-31T03:29:04.541Z,1015.16
2018-05-31T03:30:13.405Z,1015.17
2018-05-31T03:31:23.289Z,1015.19
2018-05-31T03:32:33.035Z,1015.18
2018-05-31T03:33:42.184Z,1015.19
2018-05-31T03:34:51.048Z,1015.21
2018-05-31T03:36:00.213Z,1015.21
2018-05-31T03:37:09.081Z,1015.19
2018-05-31T03:38:17.942Z,1015.19
2018-05-31T03:39:27.093Z,1015.19
2018-05-31T03:40:35.956Z,1015.18
2018-05-31T03:41:44.820Z,1015.17
2018-05-31T03:42:53.684Z,1015.13
2018-05-31T03:44:02.550Z,1015.12
2018-05-31T03:45:11.706Z,1015.09
2018-05-31T03:46:21.173Z,1015.13
2018-05-31T03:47:30.067Z,1015.14
2018-05-31T03:48:39.200Z,1015.13
2018-05-31T03:49:48.063Z,1015.17
2018-05-31T03:50:56.929Z,1015.18
2018-05-31T03:52:05.786Z,1015.2
2018-05-31T03:53:14.650Z,1015.19
2018-05-31T03:54:23.663Z,1015.24
2018-05-31T03:55:32.812Z,1015.23
2018-05-31T03:56:42.253Z,1015.21
2018-05-31T03:57:51.405Z,1015.21
2018-05-31T03:59:00.268Z,1015.26
2018-05-31T04:00:09.179Z,1015.3
2018-05-31T04:01:18.621Z,1015.29
2018-05-31T04:02:27.482Z,1015.31
2018-05-31T04:03:36.345Z,1015.3
2018-05-31T04:04:45.931Z,1015.27
2018-05-31T04:05:55.146Z,1015.25
2018-05-31T04:07:04.010Z,1015.26
2018-05-31T04:08:12.871Z,1015.22
2018-05-31T04:09:21.736Z,1015.26
2018-05-31T04:10:30.884Z,1015.24
2018-05-31T04:11:40.764Z,1015.33
2018-05-31T04:12:49.629Z,1015.29
2018-05-31T04:13:58.793Z,1015.31
2018-05-31T04:15:07.658Z,1015.26
2018-05-31T04:16:16.522Z,1015.28
2018-05-31T04:17:25.437Z,1015.27
2018-05-31T04:18:34.301Z,1015.29
2018-05-31T04:19:43.166Z,1015.25
2018-05-31T04:20:52.035Z,1015.33
2018-05-31T04:22:00.898Z,1015.33
2018-05-31T04:23:09.761Z,1015.37
2018-05-31T04:24:18.624Z,1015.41
2018-05-31T04:25:27.488Z,1015.42
2018-05-31T04:26:36.346Z,1015.46
2018-05-31T04:27:45.235Z,1015.45
2018-05-31T04:28:54.424Z,1015.47
2018-05-31T04:30:03.287Z,1015.46
2018-05-31T04:31:12.154Z,1015.44
2018-05-31T04:32:21.015Z,1015.48
2018-05-31T04:33:29.877Z,1015.45
2018-05-31T04:34:38.895Z,1015.49
2018-05-31T04:35:47.754Z,1015.49
2018-05-31T04:36:56.619Z,1015.45
2018-05-31T04:38:05.499Z,1015.44
2018-05-31T04:39:14.365Z,1015.45
2018-05-31T04:40:23.382Z,1015.44
2018-05-31T04:41:32.530Z,1015.44
2018-05-31T04:42:41.399Z,1015.43
2018-05-31T04:43:50.262Z,1015.43
2018-05-31T04:44:59.128Z,1015.39
2018-05-31T04:46:08.344Z,1015.4
2018-05-31T04:47:17.206Z,1015.37
2018-05-31T04:48:26.070Z,1015.36
2018-05-31T04:49:34.941Z,1015.34
2018-05-31T04:50:44.092Z,1015.36
2018-05-31T04:51:52.956Z,1015.35
2018-05-31T04:53:01.820Z,1015.37
2018-05-31T04:54:10.684Z,1015.39
2018-05-31T04:55:19.550Z,1015.43
2018-05-31T04:56:28.463Z,1015.4
2018-05-31T04:57:37.327Z,1015.41
2018-05-31T04:58:46.196Z,1015.41
2018-05-31T04:59:55.058Z,1015.45
2018-05-31T05:01:03.922Z,1015.42
2018-05-31T05:02:13.139Z,1015.43
2018-05-31T05:03:22.005Z,1015.43
2018-05-31T05:04:30.871Z,1015.44
2018-05-31T05:05:40.320Z,1015.39
2018-05-31T05:06:49.241Z,1015.4
2018-05-31T05:07:58.103Z,1015.39
2018-05-31T05:09:07.263Z,1015.37
2018-05-31T05:10:16.132Z,1015.36
2018-05-31T05:11:24.996Z,1015.38
2018-05-31T05:12:33.859Z,1015.39
2018-05-31T05:13:43.257Z,1015.36
2018-05-31T05:14:52.121Z,1015.43
2018-05-31T05:16:01.576Z,1015.42
2018-05-31T05:17:10.439Z,1015.43
2018-05-31T05:18:19.306Z,1015.41
2018-05-31T05:19:28.556Z,1015.44
2018-05-31T05:20:37.420Z,1015.46
2018-05-31T05:21:46.568Z,1015.45
2018-05-31T05:22:55.431Z,1015.5
2018-05-31T05:24:04.294Z,1015.53
2018-05-31T05:25:13.308Z,1015.53
2018-05-31T05:26:22.203Z,1015.54
2018-05-31T05:27:31.035Z,1015.53
2018-05-31T05:28:39.901Z,1015.58
2018-05-31T05:29:48.767Z,1015.52
2018-05-31T05:30:58.081Z,1015.56
2018-05-31T05:32:06.949Z,1015.56
2018-05-31T05:33:15.884Z,1015.54
2018-05-31T05:34:24.976Z,1015.58
2018-05-31T05:35:33.838Z,1015.64
2018-05-31T05:36:42.751Z,1015.6
2018-05-31T05:37:51.621Z,1015.6
2018-05-31T05:39:00.486Z,1015.59
2018-05-31T05:40:09.352Z,1015.61
2018-05-31T05:41:18.217Z,1015.62
2018-05-31T05:42:27.822Z,1015.64
2018-05-31T05:43:36.758Z,1015.61
2018-05-31T05:44:45.552Z,1015.61
2018-05-31T05:45:54.415Z,1015.62
2018-05-31T05:47:03.280Z,1015.58
2018-05-31T05:48:12.146Z,1015.57
2018-05-31T05:49:21.009Z,1015.58
2018-05-31T05:50:30.833Z,1015.55
2018-05-31T05:51:39.696Z,1015.57
2018-05-31T05:52:48.559Z,1015.61
2018-05-31T05:53:57.576Z,1015.59
2018-05-31T05:55:06.438Z,1015.57
2018-05-31T05:56:15.301Z,1015.57
2018-05-31T05:57:24.526Z,1015.59
2018-05-31T05:58:33.391Z,1015.65
2018-05-31T05:59:42.255Z,1015.64
2018-05-31T06:00:51.118Z,1015.66
2018-05-31T06:01:59.982Z,1015.64
2018-05-31T06:03:09.132Z,1015.66
2018-05-31T06:04:18.029Z,1015.62
2018-05-31T06:05:26.959Z,1015.68
2018-05-31T06:06:35.826Z,1015.65
2018-05-31T06:07:44.689Z,1015.65
2018-05-31T06:08:53.555Z,1015.66
2018-05-31T06:10:02.424Z,1015.66
2018-05-31T06:11:11.879Z,1015.66
2018-05-31T06:12:20.744Z,1015.65
2018-05-31T06:13:29.894Z,1015.65
2018-05-31T06:14:38.758Z,1015.61
2018-05-31T06:15:47.622Z,1015.66
2018-05-31T06:16:56.827Z,1015.64
2018-05-31T06:18:05.691Z,1015.64
2018-05-31T06:19:14.849Z,1015.65
2018-05-31T06:20:23.714Z,1015.7
2018-05-31T06:21:32.576Z,1015.71
2018-05-31T06:22:41.441Z,1015.69
2018-05-31T06:23:50.315Z,1015.73
2018-05-31T06:24:59.174Z,1015.73
2018-05-31T06:26:08.383Z,1015.75
2018-05-31T06:27:17.581Z,1015.75
2018-05-31T06:28:26.830Z,1015.74
2018-05-31T06:29:35.694Z,1015.74
2018-05-31T06:30:44.563Z,1015.72
2018-05-31T06:31:53.426Z,1015.72
2018-05-31T06:33:02.295Z,1015.75
2018-05-31T06:34:11.544Z,1015.72
2018-05-31T06:35:20.410Z,1015.69
2018-05-31T06:36:29.555Z,1015.73
2018-05-31T06:37:38.699Z,1015.73
2018-05-31T06:38:47.562Z,1015.78
2018-05-31T06:39:56.576Z,1015.81
2018-05-31T06:41:05.438Z,1015.8
2018-05-31T06:42:14.309Z,1015.81
2018-05-31T06:43:23.465Z,1015.81
2018-05-31T06:44:32.605Z,1015.79
2018-05-31T06:45:41.902Z,1015.81
2018-05-31T06:46:51.049Z,1015.85
2018-05-31T06:48:00.189Z,1015.83
2018-05-31T06:49:09.338Z,1015.85
2018-05-31T06:50:18.479Z,1015.86
2018-05-31T06:51:27.445Z,1015.84
2018-05-31T06:52:36.596Z,1015.85
2018-05-31T06:53:45.462Z,1015.81
2018-05-31T06:54:54.328Z,1015.82
2018-05-31T06:56:03.480Z,1015.83
2018-05-31T06:57:12.390Z,1015.85
2018-05-31T06:58:21.258Z,1015.87
2018-05-31T06:59:30.123Z,1015.85
2018-05-31T07:00:39.549Z,1015.85
2018-05-31T07:01:48.413Z,1015.92
2018-05-31T07:02:57.707Z,1015.87
2018-05-31T07:04:06.568Z,1015.91
2018-05-31T07:05:15.459Z,1015.91
2018-05-31T07:06:24.302Z,1015.89
2018-05-31T07:07:33.165Z,1015.91
2018-05-31T07:08:42.181Z,1015.9
2018-05-31T07:09:51.046Z,1015.85
2018-05-31T07:10:59.912Z,1015.91
2018-05-31T07:12:08.778Z,1015.88
2018-05-31T07:13:17.644Z,1015.9
2018-05-31T07:14:26.844Z,1015.91
2018-05-31T07:15:35.993Z,1015.92
2018-05-31T07:16:44.866Z,1015.89
2018-05-31T07:17:53.731Z,1015.85
2018-05-31T07:19:02.880Z,1015.87
2018-05-31T07:20:11.795Z,1015.87
2018-05-31T07:21:20.657Z,1015.86
2018-05-31T07:22:29.523Z,1015.84
2018-05-31T07:23:38.665Z,1015.88
2018-05-31T07:24:47.530Z,1015.86
2018-05-31T07:25:56.723Z,1015.85
2018-05-31T07:27:05.871Z,1015.86
2018-05-31T07:28:14.735Z,1015.83
2018-05-31T07:29:23.883Z,1015.82
2018-05-31T07:30:32.748Z,1015.82
2018-05-31T07:31:41.661Z,1015.86
2018-05-31T07:32:50.528Z,1015.87
2018-05-31T07:33:59.670Z,1015.88
2018-05-31T07:35:08.536Z,1015.89
2018-05-31T07:36:17.427Z,1015.89
2018-05-31T07:37:26.829Z,1015.84
2018-05-31T07:38:35.700Z,1015.9
2018-05-31T07:39:44.929Z,1015.85
2018-05-31T07:40:54.091Z,1015.9
2018-05-31T07:42:02.958Z,1015.89
2018-05-31T07:43:11.924Z,1015.92
2018-05-31T07:44:20.836Z,1015.9
2018-05-31T07:45:30.038Z,1015.88
2018-05-31T07:46:38.905Z,1015.91
2018-05-31T07:47:47.771Z,1015.92
2018-05-31T07:48:56.738Z,1015.91
2018-05-31T07:50:05.606Z,1015.9
2018-05-31T07:51:14.523Z,1015.85
2018-05-31T07:52:23.340Z,1015.91
2018-05-31T07:53:32.488Z,1015.86
2018-05-31T07:54:41.506Z,1015.89
2018-05-31T07:55:50.373Z,1015.89
2018-05-31T07:56:59.525Z,1015.89
2018-05-31T07:58:08.422Z,1015.94
2018-05-31T07:59:17.247Z,1015.95
2018-05-31T08:00:26.115Z,1015.93
2018-05-31T08:01:34.979Z,1015.94
2018-05-31T08:02:43.850Z,1015.94
2018-05-31T08:03:52.717Z,1015.9
2018-05-31T08:05:01.584Z,1015.91
2018-05-31T08:06:10.602Z,1015.92
2018-05-31T08:07:19.470Z,1015.94
2018-05-31T08:08:28.337Z,1015.94
2018-05-31T08:09:37.485Z,1015.98
2018-05-31T08:10:46.351Z,1015.98
2018-05-31T08:11:55.949Z,1015.98
2018-05-31T08:13:04.817Z,1015.95
2018-05-31T08:14:13.970Z,1015.96
2018-05-31T08:15:23.117Z,1015.97
2018-05-31T08:16:31.987Z,1015.92
2018-05-31T08:17:40.903Z,1015.95
2018-05-31T08:18:49.774Z,1015.96
2018-05-31T08:19:58.641Z,1015.94
2018-05-31T08:21:07.511Z,1015.97
2018-05-31T08:22:16.378Z,1015.96
2018-05-31T08:23:25.598Z,1015.96
2018-05-31T08:24:34.468Z,1015.97
2018-05-31T08:25:43.340Z,1015.97
2018-05-31T08:26:52.483Z,1015.96
2018-05-31T08:28:01.623Z,1015.97
2018-05-31T08:29:10.689Z,1015.96
2018-05-31T08:30:19.833Z,1015.95
2018-05-31T08:31:28.776Z,1015.99
2018-05-31T08:32:37.569Z,1016.03
2018-05-31T08:33:46.444Z,1016.03
2018-05-31T08:34:55.959Z,1016.05
2018-05-31T08:36:04.830Z,1015.98
2018-05-31T08:37:13.696Z,1015.99
2018-05-31T08:38:22.563Z,1016.02
2018-05-31T08:39:31.430Z,1016.02
2018-05-31T08:40:40.348Z,1015.98
2018-05-31T08:41:49.214Z,1015.99
2018-05-31T08:42:58.085Z,1015.97
2018-05-31T08:44:07.283Z,1015.97
2018-05-31T08:45:16.097Z,1015.99
2018-05-31T08:46:25.012Z,1015.98
2018-05-31T08:47:33.878Z,1015.97
2018-05-31T08:48:43.034Z,1015.94
2018-05-31T08:49:51.908Z,1015.94
2018-05-31T08:51:01.343Z,1015.98
2018-05-31T08:52:10.257Z,1015.95
2018-05-31T08:53:19.119Z,1015.91
2018-05-31T08:54:27.989Z,1015.93
2018-05-31T08:55:36.854Z,1015.92
2018-05-31T08:56:46.025Z,1015.94
2018-05-31T08:57:55.318Z,1015.92
2018-05-31T08:59:04.185Z,1015.89
2018-05-31T09:00:13.627Z,1015.93
2018-05-31T09:01:22.773Z,1015.92
2018-05-31T09:02:31.642Z,1015.94
2018-05-31T09:03:40.660Z,1015.92
2018-05-31T09:04:49.527Z,1015.9
2018-05-31T09:05:58.681Z,1015.96
2018-05-31T09:07:07.549Z,1015.96
2018-05-31T09:08:16.415Z,1015.96
2018-05-31T09:09:25.436Z,1015.9
2018-05-31T09:10:34.299Z,1015.91
2018-05-31T09:11:43.165Z,1015.94
2018-05-31T09:12:52.310Z,1015.88
2018-05-31T09:14:01.178Z,1015.9
2018-05-31T09:15:10.388Z,1015.91
2018-05-31T09:16:19.605Z,1015.88
2018-05-31T09:17:28.748Z,1015.89
2018-05-31T09:18:37.616Z,1015.9
2018-05-31T09:19:46.763Z,1015.89
2018-05-31T09:20:55.780Z,1015.89
2018-05-31T09:22:04.696Z,1015.89
2018-05-31T09:23:13.517Z,1015.95
2018-05-31T09:24:22.388Z,1015.93
2018-05-31T09:25:31.257Z,1015.87
2018-05-31T09:26:40.228Z,1015.9
2018-05-31T09:27:49.094Z,1015.9
2018-05-31T09:28:57.962Z,1015.91
2018-05-31T09:30:07.108Z,1015.89
2018-05-31T09:31:15.980Z,1015.88
2018-05-31T09:32:25.276Z,1015.82
2018-05-31T09:33:34.439Z,1015.87
2018-05-31T09:34:43.306Z,1015.8
2018-05-31T09:35:52.452Z,1015.81
2018-05-31T09:37:01.321Z,1015.84
2018-05-31T09:38:10.290Z,1015.83
2018-05-31T09:39:19.157Z,1015.82
2018-05-31T09:40:28.026Z,1015.77
2018-05-31T09:41:36.896Z,1015.76
2018-05-31T09:42:46.053Z,1015.79
2018-05-31T09:43:55.073Z,1015.71
2018-05-31T09:45:03.942Z,1015.73
2018-05-31T09:46:12.817Z,1015.76
2018-05-31T09:47:21.689Z,1015.75
2018-05-31T09:48:31.116Z,1015.76
2018-05-31T09:49:40.284Z,1015.79
2018-05-31T09:50:49.153Z,1015.8
2018-05-31T09:51:58.029Z,1015.8
2018-05-31T09:53:06.890Z,1015.84
2018-05-31T09:54:16.036Z,1015.81
2018-05-31T09:55:25.004Z,1015.83
2018-05-31T09:56:33.879Z,1015.79
2018-05-31T09:57:42.748Z,1015.79
2018-05-31T09:58:51.615Z,1015.78
2018-05-31T10:00:00.484Z,1015.8
2018-05-31T10:01:09.350Z,1015.77
2018-05-31T10:02:18.225Z,1015.76
2018-05-31T10:03:27.372Z,1015.8
2018-05-31T10:04:36.513Z,1015.76
2018-05-31T10:05:45.388Z,1015.73
2018-05-31T10:06:54.356Z,1015.77
2018-05-31T10:08:03.223Z,1015.81
2018-05-31T10:09:12.087Z,1015.75
2018-05-31T10:10:20.957Z,1015.76
2018-05-31T10:11:29.826Z,1015.79
2018-05-31T10:12:38.747Z,1015.8
2018-05-31T10:13:47.893Z,1015.77
2018-05-31T10:14:57.039Z,1015.71
2018-05-31T10:16:06.188Z,1015.7
2018-05-31T10:17:15.060Z,1015.68
2018-05-31T10:18:24.307Z,1015.67
2018-05-31T10:19:33.178Z,1015.7
2018-05-31T10:20:42.053Z,1015.69
2018-05-31T10:21:50.919Z,1015.7
2018-05-31T10:22:59.787Z,1015.68
2018-05-31T10:24:09.085Z,1015.7
2018-05-31T10:25:17.953Z,1015.65
2018-05-31T10:26:26.820Z,1015.67
2018-05-31T10:27:35.690Z,1015.7
2018-05-31T10:28:44.562Z,1015.63
2018-05-31T10:29:53.524Z,1015.64
2018-05-31T10:31:02.396Z,1015.64
2018-05-31T10:32:11.545Z,1015.61
2018-05-31T10:33:20.421Z,1015.59
2018-05-31T10:34:29.570Z,1015.61
2018-05-31T10:35:38.793Z,1015.64
2018-05-31T10:36:47.660Z,1015.62
2018-05-31T10:37:56.528Z,1015.64
2018-05-31T10:39:05.680Z,1015.59
2018-05-31T10:40:14.552Z,1015.59
2018-05-31T10:41:23.421Z,1015.59
2018-05-31T10:42:32.856Z,1015.61
2018-05-31T10:43:41.726Z,1015.58
2018-05-31T10:44:50.598Z,1015.6
2018-05-31T10:45:59.468Z,1015.6
2018-05-31T10:47:08.437Z,1015.61
2018-05-31T10:48:17.306Z,1015.63
2018-05-31T10:49:26.172Z,1015.6
2018-05-31T10:50:35.318Z,1015.59
2018-05-31T10:51:44.471Z,1015.55
2018-05-31T10:52:53.343Z,1015.56
2018-05-31T10:54:02.491Z,1015.55
2018-05-31T10:55:11.642Z,1015.55
2018-05-31T10:56:20.514Z,1015.49
2018-05-31T10:57:29.389Z,1015.49
2018-05-31T10:58:38.539Z,1015.49
2018-05-31T10:59:47.406Z,1015.48
2018-05-31T11:00:56.277Z,1015.48
2018-05-31T11:02:05.428Z,1015.44
2018-05-31T11:03:14.584Z,1015.44
2018-05-31T11:04:23.454Z,1015.43
2018-05-31T11:05:32.321Z,1015.44
2018-05-31T11:06:41.472Z,1015.42
2018-05-31T11:07:50.343Z,1015.42
2018-05-31T11:08:59.214Z,1015.45
2018-05-31T11:10:08.080Z,1015.4
2018-05-31T11:11:17.236Z,1015.42
2018-05-31T11:12:26.107Z,1015.38
2018-05-31T11:13:34.976Z,1015.34
2018-05-31T11:14:43.849Z,1015.34
2018-05-31T11:15:52.721Z,1015.32
2018-05-31T11:17:01.594Z,1015.29
2018-05-31T11:18:10.611Z,1015.26
2018-05-31T11:19:19.487Z,1015.21
2018-05-31T11:20:28.358Z,1015.22
2018-05-31T11:21:37.248Z,1015.21
2018-05-31T11:22:47.429Z,1015.2
2018-05-31T11:23:56.347Z,1015.21
2018-05-31T11:25:05.220Z,1015.11
2018-05-31T11:26:14.376Z,1015.11
2018-05-31T11:27:23.244Z,1015.12
2018-05-31T11:28:32.393Z,1015.1
2018-05-31T11:29:41.364Z,1015.1
2018-05-31T11:30:50.237Z,1015.04
2018-05-31T11:31:59.670Z,1015.05
2018-05-31T11:33:08.869Z,1015.05
2018-05-31T11:34:17.710Z,1015.07
2018-05-31T11:35:26.834Z,1015.04
2018-05-31T11:36:35.705Z,1015.05
2018-05-31T11:37:44.573Z,1015
2018-05-31T11:38:53.450Z,1015.02
2018-05-31T11:40:02.601Z,1015.01
2018-05-31T11:41:12.098Z,1015.05
2018-05-31T11:42:20.974Z,1015.01
2018-05-31T11:43:29.845Z,1015.03
2018-05-31T11:44:39.026Z,1015.01
2018-05-31T11:45:47.938Z,1015.02
2018-05-31T11:46:56.956Z,1014.97
2018-05-31T11:48:06.211Z,1014.96
2018-05-31T11:49:15.260Z,1015.02
2018-05-31T11:50:24.697Z,1014.98
2018-05-31T11:51:33.571Z,1014.99
2018-05-31T11:52:42.598Z,1015.01
2018-05-31T11:53:51.470Z,1015
2018-05-31T11:55:00.341Z,1014.93
2018-05-31T11:56:09.217Z,1014.94
2018-05-31T11:57:18.090Z,1014.83
2018-05-31T11:58:27.015Z,1015
2018-05-31T11:59:35.884Z,1015.02
2018-05-31T12:00:44.769Z,1014.97
2018-05-31T12:01:53.643Z,1015.04
2018-05-31T12:03:02.793Z,1015
2018-05-31T12:04:12.129Z,1015.01
2018-05-31T12:05:21.012Z,1015.01
2018-05-31T12:06:30.043Z,1014.97
2018-05-31T12:07:39.191Z,1014.95
2018-05-31T12:08:48.580Z,1015.01
2018-05-31T12:09:57.779Z,1015
2018-05-31T12:11:06.733Z,1014.96
2018-05-31T12:12:15.619Z,1014.96
2018-05-31T12:13:24.484Z,1015
2018-05-31T12:14:33.363Z,1014.94
2018-05-31T12:15:42.703Z,1014.99
2018-05-31T12:16:51.576Z,1014.97
2018-05-31T12:18:00.462Z,1014.98
2018-05-31T12:19:09.352Z,1014.97
2018-05-31T12:20:18.234Z,1015.03
2018-05-31T12:21:27.462Z,1014.98
2018-05-31T12:22:36.347Z,1014.97
2018-05-31T12:23:45.223Z,1014.99
2018-05-31T12:24:54.103Z,1014.98
2018-05-31T12:26:02.981Z,1014.96
2018-05-31T12:27:12.189Z,1014.94
2018-05-31T12:28:21.079Z,1014.96
2018-05-31T12:29:30.523Z,1014.99
2018-05-31T12:30:39.400Z,1015.03
2018-05-31T12:31:48.555Z,1014.97
2018-05-31T12:32:57.817Z,1014.98
2018-05-31T12:34:06.696Z,1014.98
2018-05-31T12:35:15.865Z,1014.97
2018-05-31T12:36:24.735Z,1014.91
2018-05-31T12:37:33.616Z,1014.93
2018-05-31T12:38:42.904Z,1015
2018-05-31T12:39:51.786Z,1014.99
2018-05-31T12:41:00.665Z,1014.96
2018-05-31T12:42:09.544Z,1014.92
2018-05-31T12:43:18.420Z,1014.98
2018-05-31T12:44:27.399Z,1014.8
2018-05-31T12:45:36.568Z,1015
2018-05-31T12:46:45.443Z,1014.96
2018-05-31T12:47:54.324Z,1014.97
2018-05-31T12:49:03.480Z,1014.87
2018-05-31T12:50:12.608Z,1014.83
2018-05-31T12:51:21.486Z,1014.9
2018-05-31T12:52:30.368Z,1014.88
2018-05-31T12:53:39.253Z,1014.87
2018-05-31T12:54:48.457Z,1014.87
2018-05-31T12:55:57.384Z,1014.92
2018-05-31T12:57:06.264Z,1014.93
2018-05-31T12:58:15.138Z,1014.92
2018-05-31T12:59:24.017Z,1014.94
2018-05-31T13:00:32.891Z,1014.9
2018-05-31T13:01:41.973Z,1014.98
2018-05-31T13:02:51.406Z,1014.89
2018-05-31T13:04:00.562Z,1014.87
2018-05-31T13:05:09.717Z,1014.86
2018-05-31T13:06:18.588Z,1014.86
2018-05-31T13:07:27.842Z,1014.81
2018-05-31T13:08:36.714Z,1014.84
2018-05-31T13:09:45.593Z,1014.82
2018-05-31T13:10:54.742Z,1014.8
2018-05-31T13:12:03.898Z,1014.84
2018-05-31T13:13:12.873Z,1014.9
2018-05-31T13:14:21.747Z,1014.86
2018-05-31T13:15:30.625Z,1014.82
2018-05-31T13:16:39.497Z,1014.72
2018-05-31T13:17:48.647Z,1014.73
2018-05-31T13:18:57.949Z,1014.66
2018-05-31T13:20:07.391Z,1014.72
2018-05-31T13:21:16.266Z,1014.68
2018-05-31T13:22:25.422Z,1014.66
2018-05-31T13:23:34.298Z,1014.67
2018-05-31T13:24:43.236Z,1014.65
2018-05-31T13:25:52.809Z,1014.69
2018-05-31T13:27:01.684Z,1014.71
2018-05-31T13:28:10.555Z,1014.77
2018-05-31T13:29:19.431Z,1014.84
2018-05-31T13:30:28.455Z,1014.65
2018-05-31T13:31:37.328Z,1014.81
2018-05-31T13:32:46.481Z,1014.83
2018-05-31T13:33:55.352Z,1014.83
2018-05-31T13:35:04.228Z,1014.66
2018-05-31T13:36:13.202Z,1014.66
2018-05-31T13:37:22.078Z,1014.67
2018-05-31T13:38:31.232Z,1014.68
2018-05-31T13:39:40.435Z,1014.67
2018-05-31T13:40:49.310Z,1014.65
2018-05-31T13:41:58.336Z,1014.79
2018-05-31T13:43:07.527Z,1014.7
2018-05-31T13:44:16.371Z,1014.77
2018-05-31T13:45:25.246Z,1014.74
2018-05-31T13:46:34.122Z,1014.74
2018-05-31T13:47:43.448Z,1014.6
2018-05-31T13:48:52.602Z,1014.59
2018-05-31T13:50:01.478Z,1014.61
2018-05-31T13:51:10.358Z,1014.6
2018-05-31T13:52:19.232Z,1014.61
2018-05-31T13:53:28.105Z,1014.58
2018-05-31T13:54:36.983Z,1014.59
2018-05-31T13:55:45.858Z,1014.7
2018-05-31T13:56:55.016Z,1014.8
2018-05-31T13:58:04.172Z,1014.89